RYR24J EGCC-EDDF
Flight info
| Callsign | RYR24J |
|---|---|
| Flight time | N/A |
| Altitude | 35000 |
| Route | SONEX L975 DESIG L603 DOLAS DCT NAVPI DCT NOLRU DCT DIXAT DIXAT1A |
| Aircraft | B738/M-SDE2E3FGHIRWXY/LB1 |
Departure
| Time | N/A |
|---|---|
| Airport | Manchester Airport (EGCC) |
Arrival
| Time | 2026-05-04 18:08 |
|---|---|
| Airport | Frankfurt Main Airport (EDDF) |
| Time | Latitude | Longitude | Altitude | Speed | Heading |
|---|---|---|---|---|---|
| 2026-05-04 17:16 | 52.62062 | 2.51465 | 21568 ft | 450 kts | 112° |
| 2026-05-04 17:17 | 52.60978 | 2.56298 | 21575 ft | 451 kts | 112° |
| 2026-05-04 17:17 | 52.57717 | 2.70780 | 21624 ft | 451 kts | 112° |
| 2026-05-04 17:18 | 52.56624 | 2.75622 | 21643 ft | 451 kts | 112° |
| 2026-05-04 17:18 | 52.54398 | 2.85297 | 21675 ft | 451 kts | 115° |
| 2026-05-04 17:19 | 52.51782 | 2.94600 | 21704 ft | 451 kts | 118° |
| 2026-05-04 17:19 | 52.49058 | 3.03728 | 21723 ft | 451 kts | 118° |
| 2026-05-04 17:20 | 52.46311 | 3.12975 | 21861 ft | 449 kts | 117° |
| 2026-05-04 17:20 | 52.43605 | 3.22161 | 21906 ft | 449 kts | 117° |
| 2026-05-04 17:20 | 52.42249 | 3.26775 | 21895 ft | 449 kts | 117° |
| 2026-05-04 17:21 | 52.39986 | 3.34457 | 21912 ft | 450 kts | 117° |
| 2026-05-04 17:21 | 52.36809 | 3.45205 | 21922 ft | 450 kts | 117° |
| 2026-05-04 17:22 | 52.35441 | 3.49818 | 21924 ft | 450 kts | 117° |
| 2026-05-04 17:22 | 52.34515 | 3.52934 | 21928 ft | 451 kts | 117° |
| 2026-05-04 17:23 | 52.30402 | 3.66725 | 21949 ft | 451 kts | 117° |
| 2026-05-04 17:23 | 52.29020 | 3.71342 | 21966 ft | 451 kts | 117° |
| 2026-05-04 17:23 | 52.26266 | 3.80513 | 21970 ft | 451 kts | 118° |
| 2026-05-04 17:24 | 52.24877 | 3.85127 | 21977 ft | 451 kts | 118° |
| 2026-05-04 17:24 | 52.20730 | 3.98849 | 22134 ft | 447 kts | 118° |
| 2026-05-04 17:25 | 52.19388 | 4.03275 | 22255 ft | 445 kts | 118° |
| 2026-05-04 17:25 | 52.16634 | 4.12327 | 22268 ft | 445 kts | 118° |
| 2026-05-04 17:26 | 52.13887 | 4.21319 | 22282 ft | 445 kts | 118° |
| 2026-05-04 17:26 | 52.09737 | 4.34843 | 22299 ft | 446 kts | 118° |
| 2026-05-04 17:27 | 52.06954 | 4.43872 | 22319 ft | 446 kts | 118° |
| 2026-05-04 17:27 | 52.04161 | 4.52900 | 22332 ft | 446 kts | 118° |
| 2026-05-04 17:28 | 52.01382 | 4.61847 | 22371 ft | 446 kts | 118° |
| 2026-05-04 17:29 | 51.97177 | 4.75327 | 22381 ft | 446 kts | 118° |
| 2026-05-04 17:29 | 51.92982 | 4.88704 | 22684 ft | 439 kts | 118° |
| 2026-05-04 17:30 | 51.88883 | 5.01702 | 22864 ft | 434 kts | 119° |
| 2026-05-04 17:31 | 51.86124 | 5.10405 | 22899 ft | 435 kts | 119° |
| 2026-05-04 17:31 | 51.81961 | 5.23487 | 22953 ft | 439 kts | 119° |
| 2026-05-04 17:32 | 51.79167 | 5.32228 | 22959 ft | 439 kts | 119° |
| 2026-05-04 17:33 | 51.74958 | 5.45341 | 22967 ft | 439 kts | 119° |
| 2026-05-04 17:33 | 51.73533 | 5.49760 | 23201 ft | 444 kts | 119° |
| 2026-05-04 17:34 | 51.69259 | 5.62979 | 24564 ft | 446 kts | 120° |
| 2026-05-04 17:34 | 51.67812 | 5.67439 | 24906 ft | 450 kts | 120° |
| 2026-05-04 17:35 | 51.63413 | 5.80945 | 25916 ft | 457 kts | 121° |
| 2026-05-04 17:35 | 51.60424 | 5.90074 | 26337 ft | 467 kts | 121° |
| 2026-05-04 17:35 | 51.58911 | 5.94690 | 26698 ft | 468 kts | 121° |
| 2026-05-04 17:36 | 51.57391 | 5.99320 | 27048 ft | 468 kts | 122° |
| 2026-05-04 17:36 | 51.55901 | 6.03848 | 27281 ft | 470 kts | 122° |
| 2026-05-04 17:36 | 51.54368 | 6.08495 | 27499 ft | 472 kts | 122° |
| 2026-05-04 17:36 | 51.52824 | 6.13173 | 27766 ft | 474 kts | 122° |
| 2026-05-04 17:37 | 51.51297 | 6.17788 | 28123 ft | 472 kts | 122° |
| 2026-05-04 17:37 | 51.49781 | 6.22470 | 28512 ft | 472 kts | 120° |
| 2026-05-04 17:37 | 51.48482 | 6.27323 | 28816 ft | 474 kts | 116° |
| 2026-05-04 17:37 | 51.47280 | 6.32271 | 28941 ft | 479 kts | 115° |
| 2026-05-04 17:38 | 51.46098 | 6.37297 | 29177 ft | 481 kts | 115° |
| 2026-05-04 17:38 | 51.44918 | 6.42309 | 29578 ft | 478 kts | 115° |
| 2026-05-04 17:38 | 51.43744 | 6.47225 | 30016 ft | 475 kts | 116° |
| 2026-05-04 17:38 | 51.42545 | 6.52158 | 30327 ft | 474 kts | 116° |
| 2026-05-04 17:39 | 51.40114 | 6.61996 | 30922 ft | 474 kts | 116° |
| 2026-05-04 17:39 | 51.38908 | 6.66841 | 31257 ft | 472 kts | 117° |
| 2026-05-04 17:39 | 51.37690 | 6.71722 | 31570 ft | 471 kts | 117° |
| 2026-05-04 17:40 | 51.36470 | 6.76602 | 31720 ft | 474 kts | 117° |
| 2026-05-04 17:40 | 51.35239 | 6.81508 | 31882 ft | 476 kts | 117° |
| 2026-05-04 17:40 | 51.34003 | 6.86438 | 32195 ft | 474 kts | 117° |
| 2026-05-04 17:40 | 51.32790 | 6.91274 | 32583 ft | 471 kts | 117° |
| 2026-05-04 17:41 | 51.31569 | 6.96128 | 32937 ft | 469 kts | 117° |
| 2026-05-04 17:41 | 51.30382 | 7.00835 | 33166 ft | 470 kts | 117° |
| 2026-05-04 17:41 | 51.27865 | 7.10559 | 33091 ft | 469 kts | 123° |
| 2026-05-04 17:42 | 51.25988 | 7.14681 | 33104 ft | 452 kts | 141° |
| 2026-05-04 17:42 | 51.23603 | 7.17722 | 33071 ft | 439 kts | 155° |
| 2026-05-04 17:42 | 51.18133 | 7.22011 | 33108 ft | 440 kts | 160° |
| 2026-05-04 17:43 | 51.12566 | 7.26301 | 33108 ft | 445 kts | 159° |
| 2026-05-04 17:43 | 51.07088 | 7.30789 | 32865 ft | 432 kts | 158° |
| 2026-05-04 17:44 | 51.04476 | 7.32966 | 31955 ft | 427 kts | 158° |
| 2026-05-04 17:44 | 51.01809 | 7.35170 | 30746 ft | 431 kts | 158° |
| 2026-05-04 17:44 | 50.99135 | 7.37366 | 29315 ft | 438 kts | 158° |
| 2026-05-04 17:44 | 50.96402 | 7.39606 | 27735 ft | 444 kts | 157° |
| 2026-05-04 17:45 | 50.93635 | 7.41878 | 26376 ft | 448 kts | 156° |
| 2026-05-04 17:45 | 50.90897 | 7.44130 | 26182 ft | 440 kts | 156° |
| 2026-05-04 17:45 | 50.88268 | 7.46292 | 25988 ft | 421 kts | 157° |
| 2026-05-04 17:45 | 50.85705 | 7.48393 | 25582 ft | 411 kts | 157° |
| 2026-05-04 17:46 | 50.83158 | 7.50469 | 25229 ft | 412 kts | 157° |
| 2026-05-04 17:46 | 50.80595 | 7.52553 | 24861 ft | 416 kts | 157° |
| 2026-05-04 17:46 | 50.78010 | 7.54655 | 24502 ft | 417 kts | 156° |
| 2026-05-04 17:46 | 50.75440 | 7.56748 | 24123 ft | 413 kts | 156° |
| 2026-05-04 17:47 | 50.72906 | 7.58812 | 23572 ft | 404 kts | 156° |
| 2026-05-04 17:47 | 50.70427 | 7.60827 | 22894 ft | 396 kts | 156° |
| 2026-05-04 17:47 | 50.68024 | 7.62776 | 22234 ft | 389 kts | 156° |
| 2026-05-04 17:47 | 50.65632 | 7.64712 | 21574 ft | 382 kts | 156° |
| 2026-05-04 17:48 | 50.63291 | 7.66606 | 20942 ft | 375 kts | 156° |
| 2026-05-04 17:48 | 50.60982 | 7.68471 | 20310 ft | 369 kts | 156° |
| 2026-05-04 17:48 | 50.58707 | 7.70307 | 19700 ft | 364 kts | 156° |
| 2026-05-04 17:48 | 50.56466 | 7.72112 | 19101 ft | 359 kts | 156° |
| 2026-05-04 17:49 | 50.54251 | 7.73894 | 18512 ft | 355 kts | 156° |
| 2026-05-04 17:49 | 50.52081 | 7.75638 | 17527 ft | 358 kts | 156° |
| 2026-05-04 17:49 | 50.49837 | 7.77439 | 16449 ft | 364 kts | 155° |
| 2026-05-04 17:49 | 50.47567 | 7.79260 | 15300 ft | 369 kts | 155° |
| 2026-05-04 17:50 | 50.45251 | 7.81115 | 14089 ft | 376 kts | 155° |
| 2026-05-04 17:50 | 50.42953 | 7.83045 | 13390 ft | 369 kts | 150° |
| 2026-05-04 17:50 | 50.40909 | 7.85364 | 12846 ft | 357 kts | 144° |
| 2026-05-04 17:50 | 50.39020 | 7.87805 | 12305 ft | 346 kts | 143° |
| 2026-05-04 17:51 | 50.37226 | 7.90159 | 11783 ft | 336 kts | 143° |
| 2026-05-04 17:51 | 50.35443 | 7.92459 | 11300 ft | 328 kts | 144° |
| 2026-05-04 17:51 | 50.33683 | 7.94686 | 10802 ft | 321 kts | 144° |
| 2026-05-04 17:51 | 50.31953 | 7.96844 | 10309 ft | 315 kts | 145° |
| 2026-05-04 17:52 | 50.30261 | 7.98941 | 10077 ft | 304 kts | 145° |
| 2026-05-04 17:52 | 50.28645 | 8.00934 | 10021 ft | 304 kts | 145° |
| 2026-05-04 17:52 | 50.26985 | 8.02979 | 9987 ft | 302 kts | 146° |
| 2026-05-04 17:52 | 50.25351 | 8.04994 | 9985 ft | 303 kts | 145° |
| 2026-05-04 17:53 | 50.23697 | 8.07036 | 9987 ft | 303 kts | 145° |
| 2026-05-04 17:53 | 50.22039 | 8.09081 | 9984 ft | 304 kts | 145° |
| 2026-05-04 17:53 | 50.20376 | 8.11128 | 9971 ft | 304 kts | 145° |
| 2026-05-04 17:53 | 50.18713 | 8.13172 | 9975 ft | 304 kts | 145° |
| 2026-05-04 17:54 | 50.17042 | 8.15225 | 9960 ft | 304 kts | 145° |
| 2026-05-04 17:54 | 50.15379 | 8.17270 | 9961 ft | 304 kts | 145° |
| 2026-05-04 17:54 | 50.13880 | 8.19604 | 9937 ft | 311 kts | 124° |
| 2026-05-04 17:54 | 50.13257 | 8.22796 | 9963 ft | 320 kts | 95° |
| 2026-05-04 17:55 | 50.13477 | 8.26277 | 9954 ft | 325 kts | 82° |
| 2026-05-04 17:55 | 50.13969 | 8.29726 | 9958 ft | 326 kts | 79° |
| 2026-05-04 17:55 | 50.14507 | 8.33176 | 9946 ft | 327 kts | 79° |
| 2026-05-04 17:55 | 50.15048 | 8.36621 | 9950 ft | 327 kts | 79° |
| 2026-05-04 17:56 | 50.15581 | 8.40067 | 9957 ft | 327 kts | 79° |
| 2026-05-04 17:56 | 50.16097 | 8.43463 | 9893 ft | 316 kts | 80° |
| 2026-05-04 17:56 | 50.16583 | 8.46700 | 9814 ft | 302 kts | 80° |
| 2026-05-04 17:56 | 50.17048 | 8.49833 | 9645 ft | 291 kts | 80° |
| 2026-05-04 17:57 | 50.17496 | 8.52890 | 9284 ft | 288 kts | 80° |
| 2026-05-04 17:57 | 50.17938 | 8.55929 | 8890 ft | 286 kts | 80° |
| 2026-05-04 17:57 | 50.18375 | 8.58945 | 8513 ft | 284 kts | 80° |
| 2026-05-04 17:57 | 50.18807 | 8.61930 | 8198 ft | 280 kts | 80° |
| 2026-05-04 17:58 | 50.19231 | 8.64863 | 8090 ft | 274 kts | 80° |
| 2026-05-04 17:58 | 50.19649 | 8.67760 | 7885 ft | 274 kts | 80° |
| 2026-05-04 17:58 | 50.20062 | 8.70636 | 7540 ft | 275 kts | 80° |
| 2026-05-04 17:58 | 50.20481 | 8.73557 | 7117 ft | 276 kts | 80° |
| 2026-05-04 17:59 | 50.20899 | 8.76474 | 6759 ft | 274 kts | 80° |
| 2026-05-04 17:59 | 50.21312 | 8.79361 | 6416 ft | 272 kts | 80° |
| 2026-05-04 17:59 | 50.22128 | 8.85081 | 5706 ft | 267 kts | 79° |
| 2026-05-04 18:00 | 50.22529 | 8.87894 | 5381 ft | 264 kts | 79° |
| 2026-05-04 18:00 | 50.22909 | 8.90658 | 5039 ft | 261 kts | 83° |
| 2026-05-04 18:00 | 50.22751 | 8.93412 | 4818 ft | 250 kts | 114° |
| 2026-05-04 18:00 | 50.21774 | 8.95516 | 4715 ft | 234 kts | 145° |
| 2026-05-04 18:01 | 50.20366 | 8.96578 | 4631 ft | 220 kts | 162° |
| 2026-05-04 18:01 | 50.18921 | 8.97322 | 4392 ft | 215 kts | 163° |
| 2026-05-04 18:01 | 50.17486 | 8.97728 | 4175 ft | 208 kts | 186° |
| 2026-05-04 18:02 | 50.15063 | 8.95277 | 4035 ft | 215 kts | 223° |
| 2026-05-04 18:02 | 50.14005 | 8.93702 | 4011 ft | 211 kts | 223° |
| 2026-05-04 18:02 | 50.12945 | 8.92117 | 4005 ft | 211 kts | 224° |
| 2026-05-04 18:02 | 50.11896 | 8.90545 | 3988 ft | 204 kts | 224° |
| 2026-05-04 18:03 | 50.11143 | 8.88778 | 3990 ft | 192 kts | 252° |
| 2026-05-04 18:03 | 50.10736 | 8.86796 | 4009 ft | 192 kts | 249° |
| 2026-05-04 18:03 | 50.10259 | 8.84867 | 4005 ft | 190 kts | 248° |
| 2026-05-04 18:03 | 50.09804 | 8.82945 | 3999 ft | 189 kts | 249° |
| 2026-05-04 18:04 | 50.09359 | 8.81015 | 4002 ft | 188 kts | 249° |
| 2026-05-04 18:04 | 50.08906 | 8.79103 | 3982 ft | 190 kts | 249° |
| 2026-05-04 18:04 | 50.07976 | 8.75205 | 3643 ft | 189 kts | 248° |
| 2026-05-04 18:05 | 50.07521 | 8.73301 | 3654 ft | 190 kts | 249° |
| 2026-05-04 18:05 | 50.07063 | 8.71345 | 3365 ft | 189 kts | 250° |
| 2026-05-04 18:05 | 50.06621 | 8.69491 | 2895 ft | 181 kts | 249° |
| 2026-05-04 18:05 | 50.06152 | 8.67642 | 2126 ft | 190 kts | 249° |
| 2026-05-04 18:06 | 50.05241 | 8.63767 | 997 ft | 179 kts | 251° |
| 2026-05-04 18:06 | 50.04809 | 8.62052 | 773 ft | 161 kts | 251° |
| 2026-05-04 18:06 | 50.04444 | 8.60510 | 641 ft | 149 kts | 253° |
| 2026-05-04 18:07 | 50.04081 | 8.58994 | 457 ft | 149 kts | 252° |
| 2026-05-04 18:07 | 50.03739 | 8.57518 | 358 ft | 136 kts | 250° |
| 2026-05-04 18:07 | 50.03448 | 8.56315 | 352 ft | 101 kts | 249° |
| 2026-05-04 18:07 | 50.03244 | 8.55460 | 349 ft | 61 kts | 249° |
| 2026-05-04 18:08 | 50.03177 | 8.54998 | 349 ft | 26 kts | 276° |
| 2026-05-04 18:08 | 50.03194 | 8.54822 | 338 ft | 20 kts | 279° |
| 2026-05-04 18:08 | 50.03209 | 8.54676 | 336 ft | 10 kts | 280° |
| 2026-05-04 18:08 | 50.03262 | 8.54606 | 334 ft | 2 kts | 6° |
| 2026-05-04 18:09 | 50.03326 | 8.54772 | 337 ft | 17 kts | 70° |
| 2026-05-04 18:09 | 50.03393 | 8.55067 | 349 ft | 21 kts | 69° |
| 2026-05-04 18:10 | 50.03452 | 8.55300 | 347 ft | 24 kts | 69° |
| 2026-05-04 18:10 | 50.03517 | 8.55570 | 347 ft | 25 kts | 70° |
| 2026-05-04 18:10 | 50.03566 | 8.55778 | 354 ft | 15 kts | 69° |
| 2026-05-04 18:10 | 50.03612 | 8.55975 | 355 ft | 23 kts | 70° |
| 2026-05-04 18:11 | 50.03676 | 8.56243 | 357 ft | 29 kts | 70° |
| 2026-05-04 18:11 | 50.03746 | 8.56535 | 356 ft | 28 kts | 70° |
| 2026-05-04 18:11 | 50.03812 | 8.56811 | 360 ft | 26 kts | 70° |
| 2026-05-04 18:11 | 50.03873 | 8.57069 | 358 ft | 25 kts | 69° |
| 2026-05-04 18:12 | 50.03931 | 8.57309 | 367 ft | 23 kts | 69° |
| 2026-05-04 18:12 | 50.03986 | 8.57535 | 367 ft | 22 kts | 69° |
| 2026-05-04 18:12 | 50.04039 | 8.57758 | 371 ft | 22 kts | 70° |
| 2026-05-04 18:12 | 50.04091 | 8.57976 | 369 ft | 21 kts | 70° |
| 2026-05-04 18:13 | 50.04141 | 8.58187 | 371 ft | 20 kts | 69° |
| 2026-05-04 18:13 | 50.04190 | 8.58391 | 369 ft | 20 kts | 69° |
| 2026-05-04 18:13 | 50.04283 | 8.58777 | 371 ft | 19 kts | 69° |
| 2026-05-04 18:14 | 50.04328 | 8.58962 | 375 ft | 18 kts | 70° |
| 2026-05-04 18:14 | 50.04372 | 8.59149 | 376 ft | 19 kts | 69° |
| 2026-05-04 18:14 | 50.04417 | 8.59336 | 374 ft | 18 kts | 69° |
| 2026-05-04 18:15 | 50.04607 | 8.59465 | 372 ft | 17 kts | 357° |
| 2026-05-04 18:15 | 50.04775 | 8.59400 | 371 ft | 2 kts | 338° |
| 2026-05-04 18:15 | 50.04777 | 8.59399 | 371 ft | 0 kts | 343° |
| 2026-05-04 18:16 | 50.04787 | 8.59394 | 371 ft | 4 kts | 341° |
| 2026-05-04 18:16 | 50.04842 | 8.59362 | 372 ft | 13 kts | 343° |
| 2026-05-04 18:17 | 50.05030 | 8.59319 | 363 ft | 12 kts | 338° |
| 2026-05-04 18:17 | 50.05077 | 8.59255 | 363 ft | 10 kts | 289° |
| 2026-05-04 18:17 | 50.05057 | 8.59125 | 364 ft | 2 kts | 224° |
| 2026-05-04 18:18 | 50.05041 | 8.59121 | 361 ft | 2 kts | 177° |
| 2026-05-04 18:18 | 50.05026 | 8.59125 | 362 ft | 2 kts | 168° |
| 2026-05-04 18:18 | 50.05011 | 8.59132 | 365 ft | 2 kts | 159° |
| 2026-05-04 18:18 | 50.04998 | 8.59140 | 362 ft | 2 kts | 159° |